sensor_id;sensor_type;location;lat;lon;timestamp;pressure;altitude;pressure_sealevel;temperature;humidity
70690;BME280;58267;51.156;17.044;2022-10-18T00:01:13;101195.43;;;17.33;38.30
70690;BME280;58267;51.156;17.044;2022-10-18T00:03:39;101184.13;;;17.47;38.07
70690;BME280;58267;51.156;17.044;2022-10-18T00:06:06;101182.79;;;17.50;38.03
70690;BME280;58267;51.156;17.044;2022-10-18T00:08:30;101185.01;;;17.52;38.02
70690;BME280;58267;51.156;17.044;2022-10-18T00:10:55;101183.33;;;17.60;37.93
70690;BME280;58267;51.156;17.044;2022-10-18T00:13:21;101184.54;;;17.54;37.90
70690;BME280;58267;51.156;17.044;2022-10-18T00:15:50;101186.31;;;17.45;37.97
70690;BME280;58267;51.156;17.044;2022-10-18T00:18:12;101189.13;;;17.56;37.90
70690;BME280;58267;51.156;17.044;2022-10-18T00:20:37;101192.77;;;17.43;37.99
70690;BME280;58267;51.156;17.044;2022-10-18T00:23:03;101189.99;;;17.01;38.12
70690;BME280;58267;51.156;17.044;2022-10-18T00:25:29;101190.88;;;17.15;38.17
70690;BME280;58267;51.156;17.044;2022-10-18T00:27:54;101189.62;;;16.55;38.50
70690;BME280;58267;51.156;17.044;2022-10-18T00:30:20;101192.14;;;16.77;38.98
70690;BME280;58267;51.156;17.044;2022-10-18T00:32:46;101192.05;;;16.75;39.03
70690;BME280;58267;51.156;17.044;2022-10-18T00:35:11;101188.50;;;16.87;38.67
70690;BME280;58267;51.156;17.044;2022-10-18T00:37:37;101189.78;;;16.83;38.59
70690;BME280;58267;51.156;17.044;2022-10-18T00:40:03;101190.27;;;16.69;38.95
70690;BME280;58267;51.156;17.044;2022-10-18T00:42:32;101190.63;;;16.61;39.17
70690;BME280;58267;51.156;17.044;2022-10-18T00:45:03;101184.93;;;16.38;39.54
70690;BME280;58267;51.156;17.044;2022-10-18T00:47:19;101183.46;;;16.70;39.50
70690;BME280;58267;51.156;17.044;2022-10-18T00:49:47;101182.38;;;16.47;39.52
70690;BME280;58267;51.156;17.044;2022-10-18T00:52:12;101182.04;;;16.64;39.46
70690;BME280;58267;51.156;17.044;2022-10-18T00:54:40;101182.21;;;16.35;39.60
70690;BME280;58267;51.156;17.044;2022-10-18T00:57:01;101183.52;;;16.89;39.66
70690;BME280;58267;51.156;17.044;2022-10-18T00:59:26;101182.00;;;16.24;39.47
70690;BME280;58267;51.156;17.044;2022-10-18T01:01:51;101183.25;;;15.92;39.27
70690;BME280;58267;51.156;17.044;2022-10-18T01:04:18;101181.57;;;16.19;39.30
70690;BME280;58267;51.156;17.044;2022-10-18T01:06:48;101176.32;;;16.35;39.43
70690;BME280;58267;51.156;17.044;2022-10-18T01:09:15;101172.39;;;15.92;39.93
70690;BME280;58267;51.156;17.044;2022-10-18T01:11:47;101172.27;;;15.83;40.14
70690;BME280;58267;51.156;17.044;2022-10-18T01:14:08;101168.57;;;16.04;40.20
70690;BME280;58267;51.156;17.044;2022-10-18T01:16:31;101166.91;;;15.97;39.89
70690;BME280;58267;51.156;17.044;2022-10-18T01:18:56;101167.42;;;16.23;39.99
70690;BME280;58267;51.156;17.044;2022-10-18T01:21:22;101168.31;;;16.13;39.76
70690;BME280;58267;51.156;17.044;2022-10-18T01:23:56;101169.40;;;16.12;39.78
70690;BME280;58267;51.156;17.044;2022-10-18T01:26:16;101166.03;;;15.73;39.75
70690;BME280;58267;51.156;17.044;2022-10-18T01:28:43;101164.02;;;15.71;39.81
70690;BME280;58267;51.156;17.044;2022-10-18T01:30:59;101158.86;;;15.67;39.69
70690;BME280;58267;51.156;17.044;2022-10-18T01:33:30;101161.46;;;15.71;40.01
70690;BME280;58267;51.156;17.044;2022-10-18T01:35:52;101161.51;;;15.51;40.62
70690;BME280;58267;51.156;17.044;2022-10-18T01:38:16;101159.24;;;15.83;41.12
70690;BME280;58267;51.156;17.044;2022-10-18T01:40:40;101158.80;;;15.43;40.77
70690;BME280;58267;51.156;17.044;2022-10-18T01:43:07;101155.82;;;15.33;40.38
70690;BME280;58267;51.156;17.044;2022-10-18T01:45:31;101155.41;;;15.31;40.25
70690;BME280;58267;51.156;17.044;2022-10-18T01:47:56;101154.66;;;15.32;40.51
70690;BME280;58267;51.156;17.044;2022-10-18T01:50:27;101151.81;;;15.28;40.65
70690;BME280;58267;51.156;17.044;2022-10-18T01:52:47;101150.07;;;15.49;40.63
70690;BME280;58267;51.156;17.044;2022-10-18T01:55:13;101150.93;;;15.25;41.33
70690;BME280;58267;51.156;17.044;2022-10-18T01:57:57;101148.11;;;15.34;41.21
70690;BME280;58267;51.156;17.044;2022-10-18T02:00:13;101148.99;;;15.50;40.89
70690;BME280;58267;51.156;17.044;2022-10-18T02:02:41;101148.73;;;15.46;40.90
70690;BME280;58267;51.156;17.044;2022-10-18T02:05:02;101148.80;;;15.62;40.18
70690;BME280;58267;51.156;17.044;2022-10-18T02:07:29;101147.78;;;15.45;40.34
70690;BME280;58267;51.156;17.044;2022-10-18T02:09:58;101146.05;;;15.47;40.43
70690;BME280;58267;51.156;17.044;2022-10-18T02:12:17;101145.35;;;15.13;40.58
70690;BME280;58267;51.156;17.044;2022-10-18T02:14:42;101145.90;;;15.56;40.10
70690;BME280;58267;51.156;17.044;2022-10-18T02:17:08;101148.04;;;15.32;40.09
70690;BME280;58267;51.156;17.044;2022-10-18T02:19:35;101151.28;;;15.14;39.91
70690;BME280;58267;51.156;17.044;2022-10-18T02:21:58;101152.34;;;14.97;40.00
70690;BME280;58267;51.156;17.044;2022-10-18T02:24:29;101146.57;;;14.79;40.16
70690;BME280;58267;51.156;17.044;2022-10-18T02:26:49;101142.36;;;14.94;40.74
70690;BME280;58267;51.156;17.044;2022-10-18T02:29:15;101145.33;;;14.93;40.71
70690;BME280;58267;51.156;17.044;2022-10-18T02:31:43;101151.00;;;15.27;40.50
70690;BME280;58267;51.156;17.044;2022-10-18T02:34:09;101144.39;;;15.16;40.72
70690;BME280;58267;51.156;17.044;2022-10-18T02:36:33;101144.16;;;14.64;40.67
70690;BME280;58267;51.156;17.044;2022-10-18T02:39:02;101148.19;;;14.90;40.65
70690;BME280;58267;51.156;17.044;2022-10-18T02:41:24;101148.90;;;15.11;40.23
70690;BME280;58267;51.156;17.044;2022-10-18T02:43:48;101148.18;;;15.11;40.57
70690;BME280;58267;51.156;17.044;2022-10-18T02:46:14;101147.99;;;15.02;40.77
70690;BME280;58267;51.156;17.044;2022-10-18T02:48:39;101152.02;;;15.03;40.68
70690;BME280;58267;51.156;17.044;2022-10-18T02:51:05;101152.69;;;15.09;40.85
70690;BME280;58267;51.156;17.044;2022-10-18T02:53:30;101153.23;;;15.02;40.86
70690;BME280;58267;51.156;17.044;2022-10-18T02:55:56;101154.55;;;14.83;41.01
70690;BME280;58267;51.156;17.044;2022-10-18T02:58:21;101158.95;;;15.11;41.14
70690;BME280;58267;51.156;17.044;2022-10-18T03:00:49;101161.46;;;15.11;41.11
70690;BME280;58267;51.156;17.044;2022-10-18T03:03:12;101162.00;;;14.91;41.69
70690;BME280;58267;51.156;17.044;2022-10-18T03:05:37;101163.04;;;14.65;41.33
70690;BME280;58267;51.156;17.044;2022-10-18T03:08:03;101163.77;;;14.58;41.45
70690;BME280;58267;51.156;17.044;2022-10-18T03:10:28;101168.52;;;14.94;40.92
70690;BME280;58267;51.156;17.044;2022-10-18T03:12:54;101169.03;;;14.84;41.00
70690;BME280;58267;51.156;17.044;2022-10-18T03:15:19;101165.77;;;14.51;41.88
70690;BME280;58267;51.156;17.044;2022-10-18T03:17:45;101170.44;;;14.92;41.65
70690;BME280;58267;51.156;17.044;2022-10-18T03:20:11;101173.51;;;14.95;41.86
70690;BME280;58267;51.156;17.044;2022-10-18T03:22:36;101175.72;;;15.02;41.93
70690;BME280;58267;51.156;17.044;2022-10-18T03:25:02;101174.37;;;14.88;42.27
70690;BME280;58267;51.156;17.044;2022-10-18T03:27:27;101172.88;;;14.94;41.80
70690;BME280;58267;51.156;17.044;2022-10-18T03:29:52;101177.07;;;14.82;41.43
70690;BME280;58267;51.156;17.044;2022-10-18T03:32:18;101179.48;;;14.53;41.32
70690;BME280;58267;51.156;17.044;2022-10-18T03:34:43;101182.86;;;14.88;41.19
70690;BME280;58267;51.156;17.044;2022-10-18T03:37:09;101183.43;;;14.84;41.05
70690;BME280;58267;51.156;17.044;2022-10-18T03:39:34;101187.05;;;14.57;40.99
70690;BME280;58267;51.156;17.044;2022-10-18T03:42:00;101183.93;;;14.69;40.99
70690;BME280;58267;51.156;17.044;2022-10-18T03:44:25;101185.28;;;14.60;40.93
70690;BME280;58267;51.156;17.044;2022-10-18T03:46:51;101185.99;;;14.61;40.98
70690;BME280;58267;51.156;17.044;2022-10-18T03:49:16;101187.06;;;14.67;41.03
70690;BME280;58267;51.156;17.044;2022-10-18T03:51:42;101184.90;;;14.51;41.22
70690;BME280;58267;51.156;17.044;2022-10-18T03:54:08;101188.96;;;14.89;41.31
70690;BME280;58267;51.156;17.044;2022-10-18T03:56:33;101193.81;;;14.83;41.50
70690;BME280;58267;51.156;17.044;2022-10-18T03:58:59;101196.45;;;14.71;41.81
70690;BME280;58267;51.156;17.044;2022-10-18T04:01:25;101201.65;;;14.85;42.17
70690;BME280;58267;51.156;17.044;2022-10-18T04:03:50;101200.93;;;14.82;41.98
70690;BME280;58267;51.156;17.044;2022-10-18T04:06:16;101199.71;;;14.40;41.70
70690;BME280;58267;51.156;17.044;2022-10-18T04:08:42;101197.25;;;14.56;41.33
70690;BME280;58267;51.156;17.044;2022-10-18T04:11:07;101200.38;;;14.57;41.84
70690;BME280;58267;51.156;17.044;2022-10-18T04:13:33;101203.40;;;14.42;40.94
70690;BME280;58267;51.156;17.044;2022-10-18T04:15:58;101205.85;;;14.35;41.16
70690;BME280;58267;51.156;17.044;2022-10-18T04:18:24;101203.61;;;14.25;41.11
70690;BME280;58267;51.156;17.044;2022-10-18T04:20:49;101205.81;;;14.16;42.32
70690;BME280;58267;51.156;17.044;2022-10-18T04:23:15;101205.52;;;14.15;42.63
70690;BME280;58267;51.156;17.044;2022-10-18T04:25:40;101209.05;;;14.40;42.29
70690;BME280;58267;51.156;17.044;2022-10-18T04:28:06;101205.26;;;14.26;42.11
70690;BME280;58267;51.156;17.044;2022-10-18T04:30:33;101207.67;;;14.41;41.74
70690;BME280;58267;51.156;17.044;2022-10-18T04:32:58;101208.07;;;14.55;41.77
70690;BME280;58267;51.156;17.044;2022-10-18T04:35:23;101204.50;;;14.44;42.08
70690;BME280;58267;51.156;17.044;2022-10-18T04:37:49;101204.65;;;14.47;42.04
70690;BME280;58267;51.156;17.044;2022-10-18T04:40:15;101203.94;;;14.40;42.14
70690;BME280;58267;51.156;17.044;2022-10-18T04:42:40;101205.49;;;14.41;41.40
70690;BME280;58267;51.156;17.044;2022-10-18T04:45:07;101204.80;;;14.29;41.62
70690;BME280;58267;51.156;17.044;2022-10-18T04:47:32;101204.56;;;14.15;42.39
70690;BME280;58267;51.156;17.044;2022-10-18T04:49:57;101203.43;;;14.32;42.42
70690;BME280;58267;51.156;17.044;2022-10-18T04:52:22;101204.05;;;14.24;41.95
70690;BME280;58267;51.156;17.044;2022-10-18T04:54:48;101204.45;;;14.24;41.79
70690;BME280;58267;51.156;17.044;2022-10-18T04:57:14;101200.22;;;14.12;41.84
70690;BME280;58267;51.156;17.044;2022-10-18T04:59:39;101197.98;;;14.44;41.62
70690;BME280;58267;51.156;17.044;2022-10-18T05:02:05;101199.14;;;14.48;41.31
70690;BME280;58267;51.156;17.044;2022-10-18T05:04:31;101195.49;;;14.64;41.35
70690;BME280;58267;51.156;17.044;2022-10-18T05:06:56;101197.03;;;14.52;41.20
70690;BME280;58267;51.156;17.044;2022-10-18T05:09:22;101193.37;;;14.32;41.47
70690;BME280;58267;51.156;17.044;2022-10-18T05:11:48;101193.46;;;14.33;42.00
70690;BME280;58267;51.156;17.044;2022-10-18T05:14:13;101194.28;;;14.33;42.32
70690;BME280;58267;51.156;17.044;2022-10-18T05:16:39;101197.22;;;14.64;41.98
70690;BME280;58267;51.156;17.044;2022-10-18T05:19:04;101199.57;;;14.40;41.77
70690;BME280;58267;51.156;17.044;2022-10-18T05:21:29;101198.65;;;14.73;41.23
70690;BME280;58267;51.156;17.044;2022-10-18T05:23:55;101195.59;;;14.68;41.30
70690;BME280;58267;51.156;17.044;2022-10-18T05:26:21;101191.59;;;14.55;41.26
70690;BME280;58267;51.156;17.044;2022-10-18T05:28:48;101192.51;;;14.48;41.15
70690;BME280;58267;51.156;17.044;2022-10-18T05:31:12;101191.80;;;14.48;41.29
70690;BME280;58267;51.156;17.044;2022-10-18T05:33:38;101191.07;;;14.10;41.87
70690;BME280;58267;51.156;17.044;2022-10-18T05:36:04;101190.93;;;14.37;41.63
70690;BME280;58267;51.156;17.044;2022-10-18T05:38:29;101190.57;;;14.34;41.38
70690;BME280;58267;51.156;17.044;2022-10-18T05:40:54;101191.60;;;14.31;41.54
70690;BME280;58267;51.156;17.044;2022-10-18T05:43:20;101191.31;;;14.38;41.22
70690;BME280;58267;51.156;17.044;2022-10-18T05:45:47;101191.69;;;14.45;40.88
70690;BME280;58267;51.156;17.044;2022-10-18T05:48:11;101188.78;;;13.92;41.95
70690;BME280;58267;51.156;17.044;2022-10-18T05:50:37;101189.00;;;14.10;41.30
70690;BME280;58267;51.156;17.044;2022-10-18T05:53:02;101188.98;;;14.79;41.25
70690;BME280;58267;51.156;17.044;2022-10-18T05:55:27;101191.50;;;14.47;40.97
70690;BME280;58267;51.156;17.044;2022-10-18T05:57:52;101194.83;;;14.58;40.66
70690;BME280;58267;51.156;17.044;2022-10-18T06:00:18;101194.94;;;14.44;40.84
70690;BME280;58267;51.156;17.044;2022-10-18T06:02:43;101192.57;;;14.28;41.49
70690;BME280;58267;51.156;17.044;2022-10-18T06:05:09;101196.17;;;14.44;41.15
70690;BME280;58267;51.156;17.044;2022-10-18T06:07:34;101197.45;;;14.69;41.19
70690;BME280;58267;51.156;17.044;2022-10-18T06:09:59;101199.84;;;15.06;40.78
70690;BME280;58267;51.156;17.044;2022-10-18T06:12:25;101201.22;;;14.86;41.10
70690;BME280;58267;51.156;17.044;2022-10-18T06:14:50;101201.77;;;14.73;41.19
70690;BME280;58267;51.156;17.044;2022-10-18T06:17:16;101205.03;;;14.72;41.22
70690;BME280;58267;51.156;17.044;2022-10-18T06:19:41;101211.24;;;14.69;41.48
70690;BME280;58267;51.156;17.044;2022-10-18T06:22:07;101212.80;;;14.56;41.89
70690;BME280;58267;51.156;17.044;2022-10-18T06:24:32;101212.59;;;14.78;41.81
70690;BME280;58267;51.156;17.044;2022-10-18T06:26:58;101215.91;;;15.00;41.65
70690;BME280;58267;51.156;17.044;2022-10-18T06:29:24;101213.99;;;14.94;41.91
70690;BME280;58267;51.156;17.044;2022-10-18T06:31:49;101213.59;;;14.71;42.16
70690;BME280;58267;51.156;17.044;2022-10-18T06:34:15;101212.30;;;14.78;42.34
70690;BME280;58267;51.156;17.044;2022-10-18T06:36:41;101208.73;;;14.76;42.59
70690;BME280;58267;51.156;17.044;2022-10-18T06:39:06;101205.43;;;15.12;42.41
70690;BME280;58267;51.156;17.044;2022-10-18T06:41:32;101207.24;;;15.19;42.41
70690;BME280;58267;51.156;17.044;2022-10-18T06:43:57;101208.87;;;14.86;42.21
70690;BME280;58267;51.156;17.044;2022-10-18T06:46:23;101209.58;;;15.10;42.54
70690;BME280;58267;51.156;17.044;2022-10-18T06:48:48;101208.69;;;15.51;42.35
70690;BME280;58267;51.156;17.044;2022-10-18T06:51:13;101209.34;;;14.93;42.55
70690;BME280;58267;51.156;17.044;2022-10-18T06:53:39;101210.06;;;15.51;42.60
70690;BME280;58267;51.156;17.044;2022-10-18T06:56:06;101212.05;;;15.16;42.50
70690;BME280;58267;51.156;17.044;2022-10-18T06:58:30;101213.04;;;15.21;42.50
70690;BME280;58267;51.156;17.044;2022-10-18T07:00:55;101216.04;;;15.59;42.38
70690;BME280;58267;51.156;17.044;2022-10-18T07:03:20;101214.67;;;15.59;41.97
70690;BME280;58267;51.156;17.044;2022-10-18T07:05:46;101213.24;;;15.79;41.81
70690;BME280;58267;51.156;17.044;2022-10-18T07:08:11;101217.14;;;16.03;41.57
70690;BME280;58267;51.156;17.044;2022-10-18T07:10:36;101216.25;;;16.22;41.32
70690;BME280;58267;51.156;17.044;2022-10-18T07:13:01;101217.54;;;16.25;41.29
70690;BME280;58267;51.156;17.044;2022-10-18T07:15:27;101221.09;;;16.42;41.14
70690;BME280;58267;51.156;17.044;2022-10-18T07:17:52;101219.09;;;16.57;40.91
70690;BME280;58267;51.156;17.044;2022-10-18T07:20:18;101219.65;;;16.52;40.87
70690;BME280;58267;51.156;17.044;2022-10-18T07:22:44;101223.72;;;16.63;40.88
70690;BME280;58267;51.156;17.044;2022-10-18T07:25:09;101224.44;;;17.04;40.70
70690;BME280;58267;51.156;17.044;2022-10-18T07:27:35;101225.13;;;17.15;40.65
70690;BME280;58267;51.156;17.044;2022-10-18T07:30:00;101226.90;;;17.14;40.72
70690;BME280;58267;51.156;17.044;2022-10-18T07:32:26;101231.86;;;16.97;40.63
70690;BME280;58267;51.156;17.044;2022-10-18T07:34:52;101230.66;;;17.16;40.49
70690;BME280;58267;51.156;17.044;2022-10-18T07:39:44;101231.10;;;17.19;40.34
70690;BME280;58267;51.156;17.044;2022-10-18T07:42:09;101236.69;;;17.42;40.23
70690;BME280;58267;51.156;17.044;2022-10-18T07:44:35;101233.84;;;17.69;39.93
70690;BME280;58267;51.156;17.044;2022-10-18T07:47:00;101233.08;;;17.47;39.93
70690;BME280;58267;51.156;17.044;2022-10-18T07:49:25;101234.70;;;17.73;39.58
70690;BME280;58267;51.156;17.044;2022-10-18T07:51:51;101233.94;;;17.25;39.93
70690;BME280;58267;51.156;17.044;2022-10-18T07:54:16;101231.22;;;17.11;40.38
70690;BME280;58267;51.156;17.044;2022-10-18T07:56:42;101229.39;;;17.08;40.48
70690;BME280;58267;51.156;17.044;2022-10-18T07:59:08;101223.85;;;17.45;39.83
70690;BME280;58267;51.156;17.044;2022-10-18T08:01:33;101223.25;;;17.22;39.20
70690;BME280;58267;51.156;17.044;2022-10-18T08:03:57;101221.29;;;17.08;39.90
70690;BME280;58267;51.156;17.044;2022-10-18T08:06:23;101223.13;;;17.00;40.15
70690;BME280;58267;51.156;17.044;2022-10-18T08:08:48;101221.46;;;17.49;40.13
70690;BME280;58267;51.156;17.044;2022-10-18T08:11:16;101219.64;;;17.81;39.43
70690;BME280;58267;51.156;17.044;2022-10-18T08:13:40;101215.18;;;17.38;39.80
70690;BME280;58267;51.156;17.044;2022-10-18T08:16:07;101209.46;;;17.90;39.26
70690;BME280;58267;51.156;17.044;2022-10-18T08:18:30;101207.61;;;17.51;39.22
70690;BME280;58267;51.156;17.044;2022-10-18T08:20:56;101201.57;;;17.55;39.74
70690;BME280;58267;51.156;17.044;2022-10-18T08:23:21;101198.02;;;18.28;38.76
70690;BME280;58267;51.156;17.044;2022-10-18T08:25:46;101194.84;;;18.49;38.31
70690;BME280;58267;51.156;17.044;2022-10-18T08:28:12;101190.35;;;18.61;38.08
70690;BME280;58267;51.156;17.044;2022-10-18T08:30:37;101187.51;;;18.84;38.04
70690;BME280;58267;51.156;17.044;2022-10-18T08:33:03;101185.47;;;18.51;38.64
70690;BME280;58267;51.156;17.044;2022-10-18T08:35:28;101182.90;;;17.64;39.14
70690;BME280;58267;51.156;17.044;2022-10-18T08:37:53;101176.84;;;18.23;38.86
70690;BME280;58267;51.156;17.044;2022-10-18T08:40:19;101175.53;;;18.66;38.55
70690;BME280;58267;51.156;17.044;2022-10-18T08:42:55;101173.15;;;18.00;38.65
70690;BME280;58267;51.156;17.044;2022-10-18T08:45:10;101171.33;;;18.77;37.88
70690;BME280;58267;51.156;17.044;2022-10-18T08:47:36;101170.08;;;19.14;37.48
70690;BME280;58267;51.156;17.044;2022-10-18T08:50:04;101174.46;;;18.85;37.74
70690;BME280;58267;51.156;17.044;2022-10-18T08:52:31;101167.82;;;18.22;38.85
70690;BME280;58267;51.156;17.044;2022-10-18T08:54:57;101168.19;;;18.75;38.19
70690;BME280;58267;51.156;17.044;2022-10-18T08:57:17;101165.42;;;19.90;37.12
70690;BME280;58267;51.156;17.044;2022-10-18T08:59:43;101164.36;;;18.97;38.09
70690;BME280;58267;51.156;17.044;2022-10-18T09:02:18;101158.15;;;18.64;38.71
70690;BME280;58267;51.156;17.044;2022-10-18T09:04:41;101152.93;;;18.88;38.23
70690;BME280;58267;51.156;17.044;2022-10-18T09:07:13;101154.44;;;19.06;38.24
70690;BME280;58267;51.156;17.044;2022-10-18T09:09:31;101157.94;;;19.07;38.25
70690;BME280;58267;51.156;17.044;2022-10-18T09:11:57;101158.22;;;19.04;38.22
70690;BME280;58267;51.156;17.044;2022-10-18T09:14:23;101158.43;;;19.39;38.16
70690;BME280;58267;51.156;17.044;2022-10-18T09:16:44;101154.45;;;19.44;37.89
70690;BME280;58267;51.156;17.044;2022-10-18T09:19:12;101146.97;;;20.39;36.75
70690;BME280;58267;51.156;17.044;2022-10-18T09:21:38;101141.81;;;20.41;36.40
70690;BME280;58267;51.156;17.044;2022-10-18T09:24:03;101138.36;;;20.35;36.29
70690;BME280;58267;51.156;17.044;2022-10-18T09:26:23;101128.27;;;20.62;36.41
70690;BME280;58267;51.156;17.044;2022-10-18T09:28:58;101121.48;;;20.33;36.40
70690;BME280;58267;51.156;17.044;2022-10-18T09:31:18;101110.91;;;20.51;36.27
70690;BME280;58267;51.156;17.044;2022-10-18T09:33:45;101110.03;;;20.66;36.65
70690;BME280;58267;51.156;17.044;2022-10-18T09:36:06;101107.62;;;20.67;36.66
70690;BME280;58267;51.156;17.044;2022-10-18T09:38:32;101105.35;;;21.31;35.67
70690;BME280;58267;51.156;17.044;2022-10-18T09:40:57;101103.90;;;21.64;35.18
70690;BME280;58267;51.156;17.044;2022-10-18T09:43:22;101102.96;;;21.12;34.93
70690;BME280;58267;51.156;17.044;2022-10-18T09:45:46;101099.76;;;21.67;35.01
70690;BME280;58267;51.156;17.044;2022-10-18T09:48:14;101100.27;;;21.15;35.70
70690;BME280;58267;51.156;17.044;2022-10-18T09:50:38;101095.74;;;20.63;35.91
70690;BME280;58267;51.156;17.044;2022-10-18T09:53:09;101095.59;;;20.86;36.21
70690;BME280;58267;51.156;17.044;2022-10-18T09:55:31;101090.02;;;21.27;35.45
70690;BME280;58267;51.156;17.044;2022-10-18T09:57:55;101083.42;;;21.40;35.37
70690;BME280;58267;51.156;17.044;2022-10-18T10:00:21;101079.56;;;21.84;34.72
70690;BME280;58267;51.156;17.044;2022-10-18T10:02:43;101077.99;;;21.75;35.04
70690;BME280;58267;51.156;17.044;2022-10-18T10:05:12;101076.33;;;22.19;34.29
70690;BME280;58267;51.156;17.044;2022-10-18T10:07:40;101073.25;;;21.96;34.71
70690;BME280;58267;51.156;17.044;2022-10-18T10:10:05;101071.26;;;21.60;35.04
70690;BME280;58267;51.156;17.044;2022-10-18T10:12:29;101063.11;;;22.21;34.40
70690;BME280;58267;51.156;17.044;2022-10-18T10:14:51;101056.94;;;21.76;34.42
70690;BME280;58267;51.156;17.044;2022-10-18T10:17:22;101054.51;;;21.72;34.62
70690;BME280;58267;51.156;17.044;2022-10-18T10:22:11;101046.20;;;21.89;34.32
70690;BME280;58267;51.156;17.044;2022-10-18T10:24:40;101042.47;;;22.07;35.08
70690;BME280;58267;51.156;17.044;2022-10-18T10:27:03;101035.84;;;22.63;34.72
70690;BME280;58267;51.156;17.044;2022-10-18T10:32:00;101024.27;;;22.50;33.63
70690;BME280;58267;51.156;17.044;2022-10-18T10:34:19;101018.42;;;22.96;33.45
70690;BME280;58267;51.156;17.044;2022-10-18T10:36:46;101021.00;;;23.21;33.58
70690;BME280;58267;51.156;17.044;2022-10-18T10:39:10;101035.29;;;22.68;33.82
70690;BME280;58267;51.156;17.044;2022-10-18T10:41:32;101040.73;;;21.68;35.38
70690;BME280;58267;51.156;17.044;2022-10-18T10:43:57;101041.21;;;21.55;36.14
70690;BME280;58267;51.156;17.044;2022-10-18T10:46:23;101033.61;;;22.30;34.86
70690;BME280;58267;51.156;17.044;2022-10-18T10:48:50;101023.82;;;21.82;35.19
70690;BME280;58267;51.156;17.044;2022-10-18T10:51:14;101031.30;;;22.19;35.06
70690;BME280;58267;51.156;17.044;2022-10-18T10:53:41;101026.06;;;21.78;36.12
70690;BME280;58267;51.156;17.044;2022-10-18T10:56:05;101022.54;;;22.20;35.76
70690;BME280;58267;51.156;17.044;2022-10-18T10:58:34;101020.07;;;21.96;35.88
70690;BME280;58267;51.156;17.044;2022-10-18T11:00:56;101016.65;;;21.48;36.55
70690;BME280;58267;51.156;17.044;2022-10-18T11:03:22;101001.84;;;21.80;36.32
70690;BME280;58267;51.156;17.044;2022-10-18T11:05:48;100996.68;;;21.93;36.10
70690;BME280;58267;51.156;17.044;2022-10-18T11:08:15;101000.73;;;22.29;35.73
70690;BME280;58267;51.156;17.044;2022-10-18T11:10:49;101006.62;;;21.70;36.06
70690;BME280;58267;51.156;17.044;2022-10-18T11:13:07;101010.88;;;21.09;36.86
70690;BME280;58267;51.156;17.044;2022-10-18T11:15:31;101005.56;;;21.27;36.91
70690;BME280;58267;51.156;17.044;2022-10-18T11:18:07;100996.27;;;22.13;35.87
70690;BME280;58267;51.156;17.044;2022-10-18T11:20:23;100995.18;;;22.46;35.00
70690;BME280;58267;51.156;17.044;2022-10-18T11:22:56;100992.58;;;22.43;35.36
70690;BME280;58267;51.156;17.044;2022-10-18T11:25:13;100994.81;;;22.27;35.16
70690;BME280;58267;51.156;17.044;2022-10-18T11:27:41;100992.05;;;22.45;35.21
70690;BME280;58267;51.156;17.044;2022-10-18T11:32:36;100987.08;;;22.11;35.30
70690;BME280;58267;51.156;17.044;2022-10-18T11:35:02;100980.84;;;22.07;35.68
70690;BME280;58267;51.156;17.044;2022-10-18T11:37:32;100971.71;;;22.00;35.58
70690;BME280;58267;51.156;17.044;2022-10-18T11:39:53;100964.82;;;22.37;35.41
70690;BME280;58267;51.156;17.044;2022-10-18T11:42:17;100957.51;;;22.66;34.58
70690;BME280;58267;51.156;17.044;2022-10-18T11:44:40;100944.51;;;23.05;33.94
70690;BME280;58267;51.156;17.044;2022-10-18T11:47:04;100933.97;;;22.40;34.40
70690;BME280;58267;51.156;17.044;2022-10-18T11:49:41;100927.38;;;22.95;33.54
70690;BME280;58267;51.156;17.044;2022-10-18T11:52:02;100920.77;;;23.34;33.15
70690;BME280;58267;51.156;17.044;2022-10-18T11:54:25;100919.72;;;23.23;33.44
70690;BME280;58267;51.156;17.044;2022-10-18T11:56:49;100928.68;;;22.35;34.26
70690;BME280;58267;51.156;17.044;2022-10-18T11:59:21;100924.84;;;22.48;34.20
70690;BME280;58267;51.156;17.044;2022-10-18T12:01:38;100922.25;;;23.24;33.21
70690;BME280;58267;51.156;17.044;2022-10-18T12:04:03;100918.66;;;23.23;33.28
70690;BME280;58267;51.156;17.044;2022-10-18T12:06:28;100908.51;;;22.65;33.85
70690;BME280;58267;51.156;17.044;2022-10-18T12:08:54;100901.55;;;23.21;33.28
70690;BME280;58267;51.156;17.044;2022-10-18T12:11:20;100902.32;;;23.51;32.81
70690;BME280;58267;51.156;17.044;2022-10-18T12:13:45;100899.61;;;23.55;32.78
70690;BME280;58267;51.156;17.044;2022-10-18T12:16:08;100899.94;;;23.59;32.58
70690;BME280;58267;51.156;17.044;2022-10-18T12:18:33;100891.64;;;23.37;32.73
70690;BME280;58267;51.156;17.044;2022-10-18T12:20:58;100882.79;;;21.73;34.51
70690;BME280;58267;51.156;17.044;2022-10-18T12:23:33;100880.06;;;22.11;34.42
70690;BME280;58267;51.156;17.044;2022-10-18T12:25:52;100872.90;;;22.39;33.73
70690;BME280;58267;51.156;17.044;2022-10-18T12:28:21;100867.51;;;22.69;33.81
70690;BME280;58267;51.156;17.044;2022-10-18T12:30:52;100860.30;;;23.24;33.19
70690;BME280;58267;51.156;17.044;2022-10-18T12:33:09;100858.59;;;23.09;32.66
70690;BME280;58267;51.156;17.044;2022-10-18T12:35:33;100857.48;;;22.70;33.64
70690;BME280;58267;51.156;17.044;2022-10-18T12:38:07;100861.34;;;22.65;33.49
70690;BME280;58267;51.156;17.044;2022-10-18T12:40:23;100864.69;;;22.18;34.15